createdAt,value
2022-12-01T00:01:54.061Z,15.18
2022-12-01T00:04:20.425Z,13.48
2022-12-01T00:06:47.981Z,14.18
2022-12-01T00:09:33.240Z,14.30
2022-12-01T00:11:59.580Z,14.13
2022-12-01T00:14:26.077Z,14.55
2022-12-01T00:16:52.401Z,14.18
2022-12-01T00:19:18.816Z,14.10
2022-12-01T00:21:45.753Z,13.35
2022-12-01T00:24:12.548Z,13.02
2022-12-01T00:26:38.915Z,14.45
2022-12-01T00:29:05.313Z,14.00
2022-12-01T00:31:31.720Z,13.88
2022-12-01T00:33:58.187Z,13.82
2022-12-01T00:36:24.488Z,13.15
2022-12-01T00:38:54.350Z,13.50
2022-12-01T00:41:21.160Z,13.32
2022-12-01T00:43:47.559Z,13.73
2022-12-01T00:46:13.975Z,16.27
2022-12-01T00:48:40.425Z,16.08
2022-12-01T00:51:06.717Z,16.38
2022-12-01T00:53:33.081Z,16.08
2022-12-01T00:55:59.465Z,16.33
2022-12-01T00:58:25.833Z,18.27
2022-12-01T01:00:59.028Z,20.13
2022-12-01T01:03:25.793Z,19.63
2022-12-01T01:05:52.256Z,23.15
2022-12-01T01:08:18.862Z,26.50
2022-12-01T01:10:46.122Z,26.13
2022-12-01T01:13:13.410Z,27.90
2022-12-01T01:15:40.190Z,27.80
2022-12-01T01:18:07.121Z,26.88
2022-12-01T01:20:34.053Z,26.95
2022-12-01T01:23:00.378Z,26.70
2022-12-01T01:25:26.696Z,26.33
2022-12-01T01:27:53.049Z,27.15
2022-12-01T01:30:19.464Z,27.40
2022-12-01T01:32:46.009Z,27.63
2022-12-01T01:35:12.472Z,28.65
2022-12-01T01:37:39.148Z,29.02
2022-12-01T01:40:06.106Z,28.05
2022-12-01T01:42:32.409Z,28.95
2022-12-01T01:44:59.029Z,28.15
2022-12-01T01:47:28.333Z,26.85
2022-12-01T01:49:56.215Z,27.10
2022-12-01T01:52:23.323Z,25.92
2022-12-01T01:54:50.891Z,28.10
2022-12-01T01:57:20.669Z,27.50
2022-12-01T01:59:49.942Z,26.42
2022-12-01T02:02:16.486Z,25.85
2022-12-01T02:04:47.013Z,27.33
2022-12-01T02:07:15.125Z,28.40
2022-12-01T02:09:41.652Z,27.10
2022-12-01T02:12:11.285Z,26.83
2022-12-01T02:14:54.784Z,27.90
2022-12-01T02:17:41.588Z,28.60
2022-12-01T02:20:26.384Z,27.67
2022-12-01T02:22:54.048Z,28.30
2022-12-01T02:25:35.300Z,27.27
2022-12-01T02:28:16.712Z,28.08
2022-12-01T02:30:43.035Z,26.50
2022-12-01T02:33:21.169Z,29.10
2022-12-01T02:35:55.949Z,28.45
2022-12-01T02:38:42.517Z,27.45
2022-12-01T02:41:10.944Z,27.08
2022-12-01T02:43:54.640Z,27.98
2022-12-01T02:46:27.402Z,28.35
2022-12-01T02:48:55.916Z,28.15
2022-12-01T02:51:29.075Z,28.95
2022-12-01T02:53:55.912Z,27.33
2022-12-01T02:56:23.624Z,27.80
2022-12-01T02:58:50.424Z,27.65
2022-12-01T03:01:19.800Z,29.27
2022-12-01T03:03:55.262Z,28.83
2022-12-01T03:06:36.133Z,28.77
2022-12-01T03:09:02.592Z,28.65
2022-12-01T03:11:36.328Z,27.85
2022-12-01T03:14:12.428Z,28.00
2022-12-01T03:16:48.141Z,27.40
2022-12-01T03:19:16.510Z,27.83
2022-12-01T03:21:46.510Z,28.77
2022-12-01T03:24:21.162Z,29.90
2022-12-01T03:26:49.585Z,28.00
2022-12-01T03:29:18.261Z,29.13
2022-12-01T03:31:47.766Z,30.08
2022-12-01T03:34:16.703Z,28.48
2022-12-01T03:36:45.572Z,30.52
2022-12-01T03:39:15.017Z,31.25
2022-12-01T03:41:43.645Z,30.33
2022-12-01T03:44:13.977Z,28.95
2022-12-01T03:46:47.719Z,29.60
2022-12-01T03:49:14.953Z,28.88
2022-12-01T03:51:43.325Z,29.73
2022-12-01T03:54:18.732Z,30.38
2022-12-01T03:56:53.934Z,29.02
2022-12-01T03:59:21.487Z,31.48
2022-12-01T04:01:48.038Z,30.63
2022-12-01T04:04:14.833Z,29.38
2022-12-01T04:06:43.334Z,29.60
2022-12-01T04:09:09.930Z,30.52
2022-12-01T04:11:54.818Z,28.80
2022-12-01T04:14:21.191Z,30.42
2022-12-01T04:16:47.884Z,29.73
2022-12-01T04:19:14.605Z,30.98
2022-12-01T04:21:40.988Z,30.15
2022-12-01T04:24:07.490Z,30.13
2022-12-01T04:26:35.301Z,31.30
2022-12-01T04:29:02.937Z,30.17
2022-12-01T04:31:29.404Z,31.35
2022-12-01T04:33:56.364Z,31.85
2022-12-01T04:36:23.145Z,29.42
2022-12-01T04:38:49.491Z,30.83
2022-12-01T04:41:16.018Z,30.75
2022-12-01T04:43:42.584Z,30.92
2022-12-01T04:46:09.356Z,28.85
2022-12-01T04:48:36.364Z,29.17
2022-12-01T04:51:03.240Z,31.67
2022-12-01T04:53:29.550Z,31.00
2022-12-01T04:55:56.185Z,29.20
2022-12-01T04:58:22.536Z,30.02
2022-12-01T05:00:48.878Z,28.45
2022-12-01T05:03:15.452Z,30.33
2022-12-01T05:05:41.820Z,28.92
2022-12-01T05:08:08.378Z,28.63
2022-12-01T05:10:36.306Z,30.88
2022-12-01T05:13:03.160Z,30.70
2022-12-01T05:15:29.473Z,30.00
2022-12-01T05:17:55.849Z,29.15
2022-12-01T05:20:42.096Z,29.50
2022-12-01T05:23:13.569Z,29.48
2022-12-01T05:25:42.843Z,29.38
2022-12-01T05:28:09.233Z,29.50
2022-12-01T05:30:35.553Z,29.25
2022-12-01T05:33:01.928Z,29.10
2022-12-01T05:35:28.345Z,29.92
2022-12-01T05:37:55.771Z,29.08
2022-12-01T05:40:22.109Z,29.80
2022-12-01T05:42:48.463Z,30.25
2022-12-01T05:45:14.849Z,30.42
2022-12-01T05:47:41.198Z,31.58
2022-12-01T05:50:08.096Z,30.52
2022-12-01T05:52:35.315Z,33.22
2022-12-01T05:55:02.611Z,31.55
2022-12-01T05:57:28.949Z,31.77
2022-12-01T05:59:55.456Z,30.75
2022-12-01T06:02:21.907Z,30.83
2022-12-01T06:04:48.478Z,30.80
2022-12-01T06:07:14.860Z,28.67
2022-12-01T06:09:41.198Z,30.52
2022-12-01T06:12:07.532Z,27.00
2022-12-01T06:14:34.041Z,27.77
2022-12-01T06:17:00.474Z,30.75
2022-12-01T06:19:26.975Z,32.00
2022-12-01T06:21:53.256Z,28.10
2022-12-01T06:24:19.685Z,28.10
2022-12-01T06:26:46.131Z,24.77
2022-12-01T06:29:12.610Z,25.10
2022-12-01T06:31:38.940Z,24.65
2022-12-01T06:34:05.419Z,26.95
2022-12-01T06:36:31.924Z,30.08
2022-12-01T06:38:59.445Z,28.48
2022-12-01T06:41:26.101Z,29.20
2022-12-01T06:43:52.474Z,29.13
2022-12-01T06:46:18.947Z,26.88
2022-12-01T06:48:47.693Z,24.98
2022-12-01T06:51:14.087Z,25.05
2022-12-01T06:53:40.453Z,27.67
2022-12-01T06:56:06.996Z,22.83
2022-12-01T06:58:34.652Z,20.23
2022-12-01T07:01:07.609Z,20.23
2022-12-01T07:03:34.125Z,20.77
2022-12-01T07:06:02.223Z,20.73
2022-12-01T07:08:29.414Z,20.15
2022-12-01T07:10:59.657Z,19.23
2022-12-01T07:13:31.504Z,20.33
2022-12-01T07:15:59.814Z,20.88
2022-12-01T07:18:26.249Z,19.85
2022-12-01T07:20:52.535Z,20.52
2022-12-01T07:23:18.884Z,21.08
2022-12-01T07:25:45.417Z,20.67
2022-12-01T07:28:11.819Z,20.48
2022-12-01T07:30:38.435Z,22.50
2022-12-01T07:33:04.881Z,23.45
2022-12-01T07:35:31.188Z,23.58
2022-12-01T07:37:57.638Z,22.60
2022-12-01T07:40:24.095Z,22.33
2022-12-01T07:42:50.426Z,23.60
2022-12-01T07:45:16.808Z,25.00
2022-12-01T07:47:44.523Z,28.02
2022-12-01T07:50:11.104Z,28.70
2022-12-01T07:52:37.428Z,28.95
2022-12-01T07:55:03.870Z,27.70
2022-12-01T07:57:30.390Z,27.92
2022-12-01T07:59:56.873Z,29.80
2022-12-01T08:02:23.289Z,30.60
2022-12-01T08:04:49.658Z,31.10
2022-12-01T08:07:15.945Z,30.73
2022-12-01T08:09:44.815Z,31.83
2022-12-01T08:12:11.120Z,31.67
2022-12-01T08:14:37.521Z,29.75
2022-12-01T08:17:03.867Z,30.52
2022-12-01T08:19:30.501Z,30.08
2022-12-01T08:21:56.974Z,31.60
2022-12-01T08:24:23.453Z,31.10
2022-12-01T08:26:49.820Z,31.75
2022-12-01T08:29:20.145Z,31.73
2022-12-01T08:31:46.889Z,31.92
2022-12-01T08:34:13.355Z,32.05
2022-12-01T08:36:39.790Z,31.63
2022-12-01T08:39:07.307Z,30.80
2022-12-01T08:41:33.675Z,30.77
2022-12-01T08:44:01.111Z,31.40
2022-12-01T08:46:29.035Z,34.22
2022-12-01T08:48:57.208Z,31.50
2022-12-01T08:51:23.853Z,30.65
2022-12-01T08:53:50.175Z,31.33
2022-12-01T08:56:18.172Z,32.08
2022-12-01T08:58:44.654Z,31.35
2022-12-01T09:01:12.121Z,33.78
2022-12-01T09:03:39.378Z,31.45
2022-12-01T09:06:07.270Z,33.05
2022-12-01T09:08:35.024Z,32.33
2022-12-01T09:11:02.662Z,31.65
2022-12-01T09:13:29.553Z,32.92
2022-12-01T09:15:57.238Z,31.63
2022-12-01T09:18:23.721Z,32.80
2022-12-01T09:20:50.256Z,31.63
2022-12-01T09:23:16.559Z,30.80
2022-12-01T09:25:43.026Z,31.05
2022-12-01T09:28:09.462Z,29.92
2022-12-01T09:30:36.013Z,34.28
2022-12-01T09:33:02.581Z,31.58
2022-12-01T09:35:30.407Z,34.10
2022-12-01T09:37:57.467Z,32.13
2022-12-01T09:40:26.261Z,32.78
2022-12-01T09:42:52.763Z,32.10
2022-12-01T09:45:24.461Z,32.30
2022-12-01T09:47:50.993Z,34.03
2022-12-01T09:50:23.070Z,34.95
2022-12-01T09:53:02.218Z,33.88
2022-12-01T09:55:28.965Z,36.58
2022-12-01T09:57:56.590Z,51.50
2022-12-01T10:00:28.294Z,39.92
2022-12-01T10:03:20.360Z,35.97
2022-12-01T10:06:10.421Z,33.40
2022-12-01T10:08:35.863Z,34.67
2022-12-01T10:11:12.976Z,34.28
2022-12-01T10:13:39.515Z,34.25
2022-12-01T10:16:09.830Z,35.25
2022-12-01T10:18:51.576Z,36.00
2022-12-01T10:21:23.913Z,31.88
2022-12-01T10:23:57.023Z,34.05
2022-12-01T10:26:31.396Z,33.25
2022-12-01T10:29:00.964Z,34.38
2022-12-01T10:31:45.323Z,34.42
2022-12-01T10:34:17.773Z,34.05
2022-12-01T10:36:44.330Z,36.80
2022-12-01T10:39:19.477Z,34.85
2022-12-01T10:41:47.419Z,33.90
2022-12-01T10:44:14.349Z,35.60
2022-12-01T10:46:44.433Z,34.47
2022-12-01T10:49:11.990Z,35.13
2022-12-01T10:51:52.230Z,35.28
2022-12-01T10:54:18.850Z,33.45
2022-12-01T10:56:47.917Z,32.70
2022-12-01T10:59:23.278Z,34.50
2022-12-01T11:01:50.110Z,34.30
2022-12-01T11:04:42.532Z,34.78
2022-12-01T11:07:14.914Z,33.42
2022-12-01T11:09:41.322Z,34.17
2022-12-01T11:12:13.404Z,33.55
2022-12-01T11:14:42.908Z,31.50
2022-12-01T11:17:16.624Z,32.85
2022-12-01T11:19:43.647Z,33.85
2022-12-01T11:22:23.949Z,32.50
2022-12-01T11:24:53.280Z,31.88
2022-12-01T11:27:21.308Z,31.67
2022-12-01T11:29:49.575Z,31.33
2022-12-01T11:32:19.220Z,31.50
2022-12-01T11:34:54.714Z,31.58
2022-12-01T11:37:22.800Z,31.90
2022-12-01T11:39:50.059Z,30.17
2022-12-01T11:42:20.814Z,31.60
2022-12-01T11:44:51.675Z,31.88
2022-12-01T11:47:24.449Z,32.05
2022-12-01T11:49:53.347Z,31.35
2022-12-01T11:52:28.154Z,32.13
2022-12-01T11:54:58.853Z,30.02
2022-12-01T11:57:34.203Z,29.35
2022-12-01T12:00:01.868Z,30.83
2022-12-01T12:02:47.908Z,31.35
2022-12-01T12:05:35.919Z,30.75
2022-12-01T12:08:28.653Z,29.38
2022-12-01T12:11:03.943Z,30.10
2022-12-01T12:13:48.886Z,30.13
2022-12-01T12:16:15.269Z,28.83
2022-12-01T12:19:00.304Z,29.40
2022-12-01T12:21:34.483Z,28.98
2022-12-01T12:24:13.187Z,28.75
2022-12-01T12:26:47.385Z,29.23
2022-12-01T12:29:32.651Z,29.65
2022-12-01T12:32:08.217Z,27.90
2022-12-01T12:34:34.624Z,30.35
2022-12-01T12:37:07.145Z,29.15
2022-12-01T12:39:49.268Z,28.48
2022-12-01T12:42:29.409Z,28.70
2022-12-01T12:45:01.924Z,28.38
2022-12-01T12:47:47.471Z,29.20
2022-12-01T12:50:22.674Z,27.30
2022-12-01T12:52:51.254Z,26.05
2022-12-01T12:55:17.539Z,27.17
2022-12-01T12:57:51.858Z,29.38
2022-12-01T13:00:23.741Z,27.73
2022-12-01T13:03:06.096Z,28.20
2022-12-01T13:05:47.747Z,29.02
2022-12-01T13:08:17.790Z,29.20
2022-12-01T13:10:58.023Z,29.00
2022-12-01T13:13:24.567Z,27.33
2022-12-01T13:15:52.415Z,27.20
2022-12-01T13:18:25.156Z,26.70
2022-12-01T13:20:52.364Z,27.38
2022-12-01T13:23:20.291Z,26.88
2022-12-01T13:25:49.083Z,27.55
2022-12-01T13:28:20.267Z,28.35
2022-12-01T13:33:15.530Z,27.15
2022-12-01T13:35:42.227Z,27.23
2022-12-01T13:38:30.223Z,25.60
2022-12-01T13:41:14.663Z,26.70
2022-12-01T13:43:59.263Z,25.88
2022-12-01T13:46:27.615Z,25.80
2022-12-01T13:48:56.653Z,25.35
2022-12-01T13:51:23.638Z,25.90
2022-12-01T13:53:53.011Z,25.20
2022-12-01T13:56:43.852Z,24.52
2022-12-01T13:59:30.763Z,23.65
2022-12-01T14:02:15.328Z,23.67
2022-12-01T14:04:42.121Z,23.77
2022-12-01T14:07:16.793Z,25.38
2022-12-01T14:09:44.011Z,25.27
2022-12-01T14:12:19.469Z,26.20
2022-12-01T14:14:58.164Z,24.52
2022-12-01T14:17:32.091Z,23.50
2022-12-01T14:20:08.083Z,23.58
2022-12-01T14:22:43.943Z,24.08
2022-12-01T14:25:19.685Z,23.35
2022-12-01T14:27:46.926Z,23.60
2022-12-01T14:30:32.942Z,21.73
2022-12-01T14:33:18.537Z,22.50
2022-12-01T14:35:44.928Z,22.15
2022-12-01T14:38:11.597Z,21.73
2022-12-01T14:40:38.234Z,21.85
2022-12-01T14:43:23.382Z,22.30
2022-12-01T14:46:01.459Z,21.35
2022-12-01T14:48:44.949Z,22.77
2022-12-01T14:51:34.667Z,22.98
2022-12-01T14:54:02.423Z,23.27
2022-12-01T14:56:30.277Z,22.67
2022-12-01T14:58:58.347Z,23.13
2022-12-01T15:01:29.841Z,22.33
2022-12-01T15:04:01.649Z,24.65
2022-12-01T15:06:28.927Z,23.40
2022-12-01T15:12:01.913Z,45.78
2022-12-01T15:14:31.589Z,41.55
2022-12-01T15:16:58.596Z,28.63
2022-12-01T15:19:32.646Z,25.88
2022-12-01T15:22:02.545Z,25.92
2022-12-01T15:24:31.001Z,23.95
2022-12-01T15:27:03.493Z,23.00
2022-12-01T15:29:32.352Z,24.48
2022-12-01T15:32:00.535Z,23.55
2022-12-01T15:34:31.885Z,24.42
2022-12-01T15:39:33.748Z,22.67
2022-12-01T15:42:01.748Z,23.88
2022-12-01T15:44:29.499Z,23.00
2022-12-01T15:46:55.891Z,21.92
2022-12-01T15:49:32.816Z,24.05
2022-12-01T15:52:07.238Z,22.42
2022-12-01T15:54:33.958Z,22.75
2022-12-01T15:57:03.550Z,21.98
2022-12-01T15:59:29.924Z,21.77
2022-12-01T16:01:56.845Z,22.35
2022-12-01T16:04:25.241Z,22.73
2022-12-01T16:07:11.825Z,21.75
2022-12-01T16:09:42.907Z,20.95
2022-12-01T16:12:09.298Z,22.90
2022-12-01T16:14:36.219Z,22.08
2022-12-01T16:17:03.688Z,22.08
2022-12-01T16:19:30.889Z,21.05
2022-12-01T16:22:13.777Z,20.80
2022-12-01T16:24:46.572Z,21.38
2022-12-01T16:27:15.928Z,21.42
2022-12-01T16:30:03.650Z,19.83
2022-12-01T16:32:30.102Z,20.55
2022-12-01T16:34:56.498Z,20.63
2022-12-01T16:37:23.337Z,19.67
2022-12-01T16:39:50.067Z,20.15
2022-12-01T16:42:18.331Z,19.45
2022-12-01T16:44:46.326Z,19.35
2022-12-01T16:47:14.571Z,19.33
2022-12-01T16:49:41.519Z,19.23
2022-12-01T16:52:36.558Z,19.02
2022-12-01T16:54:54.498Z,17.52
2022-12-01T16:57:20.980Z,17.98
2022-12-01T16:59:47.696Z,17.60
2022-12-01T17:02:14.172Z,19.25
2022-12-01T17:04:40.563Z,17.30
2022-12-01T17:07:06.898Z,13.60
2022-12-01T17:09:34.341Z,14.50
2022-12-01T17:12:00.865Z,14.20
2022-12-01T17:14:27.265Z,13.57
2022-12-01T17:16:53.604Z,13.65
2022-12-01T17:19:20.094Z,16.05
2022-12-01T17:21:46.441Z,17.05
2022-12-01T17:24:17.584Z,15.48
2022-12-01T17:26:45.316Z,16.27
2022-12-01T17:29:11.727Z,16.70
2022-12-01T17:31:38.126Z,16.45
2022-12-01T17:34:04.503Z,19.63
2022-12-01T17:36:30.999Z,21.00
2022-12-01T17:38:58.577Z,19.33
2022-12-01T17:41:26.777Z,16.90
2022-12-01T17:43:53.365Z,17.20
2022-12-01T17:46:19.889Z,17.95
2022-12-01T17:48:46.784Z,21.23
2022-12-01T17:51:14.284Z,20.50
2022-12-01T17:53:40.965Z,20.50
2022-12-01T17:56:10.803Z,18.83
2022-12-01T17:58:38.818Z,19.13
2022-12-01T18:01:05.749Z,19.05
2022-12-01T18:03:32.309Z,14.80
2022-12-01T18:06:01.286Z,18.35
2022-12-01T18:08:29.428Z,24.20
2022-12-01T18:10:56.324Z,32.10
2022-12-01T18:13:22.805Z,34.92
2022-12-01T18:15:50.836Z,31.38
2022-12-01T18:18:17.265Z,25.55
2022-12-01T18:20:44.360Z,22.23
2022-12-01T18:23:11.680Z,20.50
2022-12-01T18:25:38.798Z,18.30
2022-12-01T18:28:06.280Z,16.38
2022-12-01T18:30:33.400Z,15.55
2022-12-01T18:33:03.008Z,13.65
2022-12-01T18:35:31.895Z,14.25
2022-12-01T18:37:58.681Z,13.90
2022-12-01T18:40:25.895Z,15.52
2022-12-01T18:42:52.369Z,14.65
2022-12-01T18:45:21.419Z,13.32
2022-12-01T18:47:47.974Z,11.80
2022-12-01T18:50:15.579Z,10.35
2022-12-01T18:52:41.954Z,11.25
2022-12-01T18:55:08.837Z,10.75
2022-12-01T18:57:35.756Z,11.25
2022-12-01T19:00:04.517Z,11.82
2022-12-01T19:02:30.951Z,11.63
2022-12-01T19:04:57.374Z,13.48
2022-12-01T19:07:28.150Z,11.70
2022-12-01T19:09:56.298Z,11.80
2022-12-01T19:12:25.013Z,11.93
2022-12-01T19:14:52.997Z,12.68
2022-12-01T19:17:19.721Z,11.52
2022-12-01T19:19:47.211Z,12.65
2022-12-01T19:22:15.085Z,12.48
2022-12-01T19:24:50.044Z,12.95
2022-12-01T19:27:17.595Z,13.35
2022-12-01T19:29:44.145Z,12.85
2022-12-01T19:32:10.890Z,11.45
2022-12-01T19:34:37.498Z,11.45
2022-12-01T19:37:03.892Z,12.07
2022-12-01T19:39:31.475Z,12.63
2022-12-01T19:41:58.044Z,12.52
2022-12-01T19:44:24.641Z,13.65
2022-12-01T19:46:51.094Z,14.93
2022-12-01T19:49:17.492Z,13.90
2022-12-01T19:51:44.042Z,14.93
2022-12-01T19:54:12.859Z,14.40
2022-12-01T19:56:39.197Z,12.40
2022-12-01T19:59:07.739Z,13.27
2022-12-01T20:01:34.131Z,12.65
2022-12-01T20:04:01.284Z,14.52
2022-12-01T20:06:28.813Z,15.57
2022-12-01T20:08:57.158Z,15.65
2022-12-01T20:11:23.942Z,16.25
2022-12-01T20:13:52.047Z,15.68
2022-12-01T20:16:20.015Z,16.77
2022-12-01T20:18:46.704Z,15.50
2022-12-01T20:21:19.283Z,15.05
2022-12-01T20:23:55.266Z,14.52
2022-12-01T20:26:24.937Z,15.68
2022-12-01T20:28:57.626Z,15.45
2022-12-01T20:31:26.295Z,14.50
2022-12-01T20:33:53.588Z,14.82
2022-12-01T20:36:20.369Z,15.45
2022-12-01T20:38:46.792Z,14.85
2022-12-01T20:41:15.922Z,14.77
2022-12-01T20:43:42.573Z,15.85
2022-12-01T20:46:10.104Z,15.80
2022-12-01T20:48:37.642Z,14.90
2022-12-01T20:51:05.005Z,15.27
2022-12-01T20:53:31.326Z,15.40
2022-12-01T20:56:01.608Z,13.85
2022-12-01T20:58:28.508Z,14.93
2022-12-01T21:00:56.544Z,15.00
2022-12-01T21:03:22.905Z,16.00
2022-12-01T21:05:49.202Z,15.38
2022-12-01T21:08:15.536Z,16.52
2022-12-01T21:10:46.782Z,23.20
2022-12-01T21:16:04.096Z,26.80
2022-12-01T21:18:41.106Z,27.73
2022-12-01T21:21:18.561Z,23.00
2022-12-01T21:23:45.154Z,22.17
2022-12-01T21:26:18.997Z,20.58
2022-12-01T21:28:46.234Z,18.77
2022-12-01T21:31:13.915Z,18.15
2022-12-01T21:33:41.041Z,16.25
2022-12-01T21:36:14.708Z,19.00
2022-12-01T21:38:41.977Z,19.60
2022-12-01T21:41:16.058Z,18.20
2022-12-01T21:43:42.405Z,17.15
2022-12-01T21:46:14.013Z,16.05
2022-12-01T21:48:41.623Z,16.40
2022-12-01T21:51:22.770Z,17.42
2022-12-01T21:53:49.695Z,16.90
2022-12-01T21:56:20.084Z,18.70
2022-12-01T21:58:46.610Z,23.13
2022-12-01T22:01:32.381Z,24.73
2022-12-01T22:04:02.300Z,26.13
2022-12-01T22:06:39.638Z,27.47
2022-12-01T22:09:24.829Z,26.88
2022-12-01T22:11:55.904Z,27.15
2022-12-01T22:14:22.164Z,27.00
2022-12-01T22:16:56.224Z,27.85
2022-12-01T22:19:27.666Z,27.50
2022-12-01T22:22:09.435Z,27.70
2022-12-01T22:24:58.153Z,29.48
2022-12-01T22:27:34.162Z,26.08
2022-12-01T22:30:02.508Z,28.60
2022-12-01T22:32:37.226Z,30.00
2022-12-01T22:35:09.874Z,29.23
2022-12-01T22:37:47.111Z,29.17
2022-12-01T22:40:25.837Z,30.83
2022-12-01T22:42:52.211Z,29.75
2022-12-01T22:45:25.539Z,32.47
2022-12-01T22:47:56.104Z,31.60
2022-12-01T22:50:31.895Z,32.38
2022-12-01T22:52:59.469Z,31.13
2022-12-01T22:55:25.886Z,33.53
2022-12-01T22:57:52.430Z,35.20
2022-12-01T23:00:19.318Z,32.70
2022-12-01T23:02:47.689Z,35.88
2022-12-01T23:05:15.221Z,33.40
2022-12-01T23:07:42.720Z,33.72
2022-12-01T23:10:17.153Z,36.67
2022-12-01T23:12:44.787Z,36.05
2022-12-01T23:15:31.080Z,36.28
2022-12-01T23:17:59.385Z,37.03
2022-12-01T23:20:27.764Z,38.40
2022-12-01T23:22:58.577Z,37.00
2022-12-01T23:25:25.395Z,36.30
2022-12-01T23:27:52.816Z,37.08
2022-12-01T23:30:19.809Z,38.40
2022-12-01T23:32:47.986Z,37.53
2022-12-01T23:35:15.688Z,37.50
2022-12-01T23:37:43.362Z,39.17
2022-12-01T23:40:20.483Z,40.80
2022-12-01T23:42:46.959Z,36.67
2022-12-01T23:45:21.387Z,38.58
2022-12-01T23:47:47.972Z,38.08
2022-12-01T23:50:24.906Z,40.47
2022-12-01T23:52:51.467Z,39.13
2022-12-01T23:55:21.334Z,38.88
2022-12-01T23:57:47.989Z,40.05
